カンクン の空港の天気 - METARとTAF

カンクン国際空港 ( MMUN / CUN ) - メキシコ キンタナ・ロー州カンクン
飛行場実況気象(Metar)
観測時間06/22 19:50 CDT (06/23 00:50 UTC)
風向・風速東 4m/s
視程10km以上
天気現象
全天の4割程度の雲 雲底高度 460m
気温28℃
湿度89%
気圧1013hPa
METARMMUN 230050Z 10008KT 7SM SCT015 28/26 A2992 RMK 8/500
過去の天気等 Google飛行場航空写真 Wunderground天気予報

過去48時間のMETAR

飛行場予報(TAF)
発表時間: 6/22 18:08 CDT (6/22 23:08 UTC)
予報対象時間: 22日19時 CDT ~ 24日1時 CDT
風向・風速南東 5m/s
視程10km以上
全天の4割程度の雲 雲底高度 460m
23日5時 CDT から 確率 40% で
視程6,440m
天気現象弱い雷雨
全天の8割程度の積乱雲 雲底高度 460m
23日9時 CDT から
風向・風速東南東 9m/s
視程10km以上
全天の4割程度の雲 雲底高度 460m
23日18時 CDT ~ 23日22時 CDT に一時的に
全天の8割程度の雲 雲底高度 460m
TAF MMUN 222308Z 2300/2406 13010KT P6SM SCT015 TX31/2318Z TN25/2312Z
PROB40 2310/2314 4SM -TSRA BKN015CB
FM231400 12018KT P6SM SCT015
TEMPO 2323/2403 BKN015